Vi Nais — HO4770 — position and weather

sailwx.info

Track history (hours):
 
Tides and Currents Weather Stations Pressure Air Temp Water Temp Dewpoint Dewpoint Depression Visibility Wind Speed Wind Dir Waves Ship Positions

Vi Nais

Last reported at 2018-Jun-15 19:35 UTC. Time now 2018-Jun-17 22:19 UTC.
Position N 26°46' W 080°02'.

Length 58 m; draft 3.4 m.

Type: Ship. MMSI: 356907000.

Date/timePositionNaut miles runAvg speedWind from/ knotsBaromVisibWave heightAir tempDewpointWater temp
2018-Jun-15 19:35N 26°46' W 080°02'1 0.1
2018-Jun-15 11:51N 26°46' W 080°03'  
2018-Jun-12 05:59N 26°34' W 079°35'612.1
2018-Jun-12 05:28N 26°29' W 079°40'612.1
2018-Jun-12 05:00N 26°25' W 079°44'712.1
2018-Jun-12 04:27N 26°20' W 079°49'512.1
2018-Jun-12 04:00N 26°16' W 079°53'611.4
2018-Jun-12 03:30N 26°12' W 079°58'611.1
2018-Jun-12 03:00N 26°08' W 080°02'5 9.5
2018-Jun-12 02:30N 26°06' W 080°07'1 1.3
2018-Jun-12 01:59N 26°05' W 080°07'0 0.0
2018-Jun-12 01:28N 26°05' W 080°07'0 0.0
2018-Jun-12 00:59N 26°05' W 080°07'0 0.0
2018-Jun-12 00:30N 26°05' W 080°07'0 0.0
2018-Jun-12 00:00N 26°05' W 080°07'0 0.0
2018-Jun-11 23:30N 26°05' W 080°07'0 0.0
2018-Jun-11 23:00N 26°05' W 080°07'0 0.0
2018-Jun-11 22:30N 26°05' W 080°07'0 0.0
2018-Jun-11 22:00N 26°05' W 080°07'0 0.0
2018-Jun-11 21:30N 26°05' W 080°07'0 0.0
2018-Jun-11 21:00N 26°05' W 080°07'0 0.0
2018-Jun-11 20:30N 26°05' W 080°07'0 0.0
2018-Jun-11 20:00N 26°05' W 080°07'0 0.0
2018-Jun-11 19:30N 26°05' W 080°07'0 0.0
2018-Jun-11 19:00N 26°05' W 080°07'0 0.0
2018-Jun-11 18:30N 26°05' W 080°07'0 0.0
2018-Jun-11 18:00N 26°05' W 080°07'0 0.0
2018-Jun-11 17:30N 26°05' W 080°07'0 0.0
2018-Jun-11 17:00N 26°05' W 080°07'0 0.0
2018-Jun-11 16:30N 26°05' W 080°07'0 0.0
2018-Jun-11 16:00N 26°05' W 080°07'0 0.0
2018-Jun-11 15:30N 26°05' W 080°07'0 0.0
2018-Jun-11 15:00N 26°05' W 080°07'0 0.0
2018-Jun-11 14:30N 26°05' W 080°07'0 0.0
2018-Jun-11 14:00N 26°05' W 080°07'2 4.1
2018-Jun-11 13:30N 26°06' W 080°05'2 3.7
2018-Jun-11 13:00N 26°05' W 080°03'510.7
2018-Jun-11 12:30N 26°03' W 079°57'511.1
2018-Jun-11 12:01N 26°02' W 079°52'611.1
2018-Jun-11 11:30N 26°00' W 079°45'611.1
2018-Jun-11 11:00N 25°59' W 079°39'  
2018-Jun-07 00:54N 26°30' W 079°23'4 9.3
2018-Jun-07 00:26N 26°32' W 079°28'5 8.9
2018-Jun-06 23:51N 26°35' W 079°33'29 1.0
2018-Jun-05 19:39N 26°46' W 080°03'  
Track history (hours):
 
Tides and Currents Weather Stations Pressure Air Temp Water Temp Dewpoint Dewpoint Depression Visibility Wind Speed Wind Dir Waves Ship Positions

Vi Nais

Last reported at 2018-Jun-15 19:35 UTC. Time now 2018-Jun-17 22:19 UTC.
Position N 26°46' W 080°02'.

Length 58 m; draft 3.4 m.

Type: Ship. MMSI: 356907000.

Date/timePositionNaut miles runAvg speedWind from/ knotsBaromVisibWave heightAir tempDewpointWater temp
2018-Jun-15 19:35N 26°46' W 080°02'1 0.1
2018-Jun-15 11:51N 26°46' W 080°03'  
2018-Jun-12 05:59N 26°34' W 079°35'612.1
2018-Jun-12 05:28N 26°29' W 079°40'612.1
2018-Jun-12 05:00N 26°25' W 079°44'712.1
2018-Jun-12 04:27N 26°20' W 079°49'512.1
2018-Jun-12 04:00N 26°16' W 079°53'611.4
2018-Jun-12 03:30N 26°12' W 079°58'611.1
2018-Jun-12 03:00N 26°08' W 080°02'5 9.5
2018-Jun-12 02:30N 26°06' W 080°07'1 1.3
2018-Jun-12 01:59N 26°05' W 080°07'0 0.0
2018-Jun-12 01:28N 26°05' W 080°07'0 0.0
2018-Jun-12 00:59N 26°05' W 080°07'0 0.0
2018-Jun-12 00:30N 26°05' W 080°07'0 0.0
2018-Jun-12 00:00N 26°05' W 080°07'0 0.0
2018-Jun-11 23:30N 26°05' W 080°07'0 0.0
2018-Jun-11 23:00N 26°05' W 080°07'0 0.0
2018-Jun-11 22:30N 26°05' W 080°07'0 0.0
2018-Jun-11 22:00N 26°05' W 080°07'0 0.0
2018-Jun-11 21:30N 26°05' W 080°07'0 0.0
2018-Jun-11 21:00N 26°05' W 080°07'0 0.0
2018-Jun-11 20:30N 26°05' W 080°07'0 0.0
2018-Jun-11 20:00N 26°05' W 080°07'0 0.0
2018-Jun-11 19:30N 26°05' W 080°07'0 0.0
2018-Jun-11 19:00N 26°05' W 080°07'0 0.0
2018-Jun-11 18:30N 26°05' W 080°07'0 0.0
2018-Jun-11 18:00N 26°05' W 080°07'0 0.0
2018-Jun-11 17:30N 26°05' W 080°07'0 0.0
2018-Jun-11 17:00N 26°05' W 080°07'0 0.0
2018-Jun-11 16:30N 26°05' W 080°07'0 0.0
2018-Jun-11 16:00N 26°05' W 080°07'0 0.0
2018-Jun-11 15:30N 26°05' W 080°07'0 0.0
2018-Jun-11 15:00N 26°05' W 080°07'0 0.0
2018-Jun-11 14:30N 26°05' W 080°07'0 0.0
2018-Jun-11 14:00N 26°05' W 080°07'2 4.1
2018-Jun-11 13:30N 26°06' W 080°05'2 3.7
2018-Jun-11 13:00N 26°05' W 080°03'510.7
2018-Jun-11 12:30N 26°03' W 079°57'511.1
2018-Jun-11 12:01N 26°02' W 079°52'611.1
2018-Jun-11 11:30N 26°00' W 079°45'611.1
2018-Jun-11 11:00N 25°59' W 079°39'  
2018-Jun-07 00:54N 26°30' W 079°23'4 9.3
2018-Jun-07 00:26N 26°32' W 079°28'5 8.9
2018-Jun-06 23:51N 26°35' W 079°33'29 1.0
2018-Jun-05 19:39N 26°46' W 080°03'  

Dump ship's entire track history